sensor_id;sensor_type;location;lat;lon;timestamp;pressure;altitude;pressure_sealevel;temperature;humidity
54666;BME280;40566;50.006;36.180;2022-08-02T00:00:35;99315.44;;;20.94;69.37
54666;BME280;40566;50.006;36.180;2022-08-02T00:05:36;99296.41;;;20.91;69.38
54666;BME280;40566;50.006;36.180;2022-08-02T00:10:37;99289.72;;;20.87;69.59
54666;BME280;40566;50.006;36.180;2022-08-02T00:15:37;99274.31;;;20.82;70.24
54666;BME280;40566;50.006;36.180;2022-08-02T00:20:38;99264.41;;;20.86;70.27
54666;BME280;40566;50.006;36.180;2022-08-02T00:25:38;99254.25;;;20.81;70.62
54666;BME280;40566;50.006;36.180;2022-08-02T00:30:39;99224.88;;;20.76;70.88
54666;BME280;40566;50.006;36.180;2022-08-02T00:35:40;99211.94;;;20.73;70.98
54666;BME280;40566;50.006;36.180;2022-08-02T00:40:46;99209.22;;;20.74;71.40
54666;BME280;40566;50.006;36.180;2022-08-02T00:45:47;99222.25;;;20.76;71.31
54666;BME280;40566;50.006;36.180;2022-08-02T00:50:47;99234.41;;;20.77;71.45
54666;BME280;40566;50.006;36.180;2022-08-02T00:55:48;99235.00;;;20.80;71.73
54666;BME280;40566;50.006;36.180;2022-08-02T01:00:48;99180.63;;;20.81;71.69
54666;BME280;40566;50.006;36.180;2022-08-02T01:05:49;99200.13;;;20.78;72.11
54666;BME280;40566;50.006;36.180;2022-08-02T01:10:50;99201.66;;;20.81;71.91
54666;BME280;40566;50.006;36.180;2022-08-02T01:15:57;99159.59;;;20.81;72.36
54666;BME280;40566;50.006;36.180;2022-08-02T01:42:13;99144.78;;;20.57;73.10
54666;BME280;40566;50.006;36.180;2022-08-02T01:47:18;99126.53;;;20.56;73.37
54666;BME280;40566;50.006;36.180;2022-08-02T01:52:20;99131.69;;;20.46;73.58
54666;BME280;40566;50.006;36.180;2022-08-02T01:57:25;99159.75;;;20.23;74.31
54666;BME280;40566;50.006;36.180;2022-08-02T02:02:28;99210.19;;;19.93;75.28
54666;BME280;40566;50.006;36.180;2022-08-02T02:07:32;99236.59;;;19.78;76.00
54666;BME280;40566;50.006;36.180;2022-08-02T02:12:35;99218.81;;;19.71;76.10
54666;BME280;40566;50.006;36.180;2022-08-02T02:17:43;99183.94;;;19.93;75.33
54666;BME280;40566;50.006;36.180;2022-08-02T02:22:44;99181.44;;;20.03;75.15
54666;BME280;40566;50.006;36.180;2022-08-02T02:27:55;99198.38;;;19.98;75.43
54666;BME280;40566;50.006;36.180;2022-08-02T02:33:01;99225.72;;;20.07;75.46
54666;BME280;40566;50.006;36.180;2022-08-02T02:38:08;99278.13;;;20.09;75.71
54666;BME280;40566;50.006;36.180;2022-08-02T02:43:11;99278.25;;;20.07;76.00
54666;BME280;40566;50.006;36.180;2022-08-02T02:48:13;99253.88;;;20.05;76.01
54666;BME280;40566;50.006;36.180;2022-08-02T02:53:16;99292.31;;;20.06;75.89
54666;BME280;40566;50.006;36.180;2022-08-02T02:58:17;99277.88;;;20.00;76.35
54666;BME280;40566;50.006;36.180;2022-08-02T03:03:19;99294.94;;;20.06;76.20
54666;BME280;40566;50.006;36.180;2022-08-02T03:08:20;99288.97;;;20.04;75.95
54666;BME280;40566;50.006;36.180;2022-08-02T03:13:21;99191.84;;;20.15;75.87
54666;BME280;40566;50.006;36.180;2022-08-02T03:18:32;99244.81;;;20.09;76.12
54666;BME280;40566;50.006;36.180;2022-08-02T03:23:33;99225.50;;;20.21;75.89
54666;BME280;40566;50.006;36.180;2022-08-02T03:28:34;99202.59;;;20.35;75.50
54666;BME280;40566;50.006;36.180;2022-08-02T03:33:35;99215.75;;;20.46;75.13
54666;BME280;40566;50.006;36.180;2022-08-02T03:38:37;99221.63;;;20.50;75.30
54666;BME280;40566;50.006;36.180;2022-08-02T03:43:39;99249.78;;;20.48;75.57
54666;BME280;40566;50.006;36.180;2022-08-02T03:48:40;99280.00;;;20.42;75.92
54666;BME280;40566;50.006;36.180;2022-08-02T03:53:41;99276.66;;;20.40;75.98
54666;BME280;40566;50.006;36.180;2022-08-02T03:58:43;99231.72;;;20.32;76.04
54666;BME280;40566;50.006;36.180;2022-08-02T04:03:43;99204.16;;;20.26;76.14
54666;BME280;40566;50.006;36.180;2022-08-02T04:08:44;99219.06;;;20.26;76.18
54666;BME280;40566;50.006;36.180;2022-08-02T04:13:45;99214.06;;;20.34;75.92
54666;BME280;40566;50.006;36.180;2022-08-02T04:18:51;99176.69;;;20.41;75.85
54666;BME280;40566;50.006;36.180;2022-08-02T04:23:54;99179.69;;;20.37;75.99
54666;BME280;40566;50.006;36.180;2022-08-02T04:28:56;99215.38;;;20.39;76.04
54666;BME280;40566;50.006;36.180;2022-08-02T04:33:58;99204.66;;;20.43;76.00
54666;BME280;40566;50.006;36.180;2022-08-02T04:38:59;99216.00;;;20.54;75.84
54666;BME280;40566;50.006;36.180;2022-08-02T04:44:00;99208.25;;;20.64;75.56
54666;BME280;40566;50.006;36.180;2022-08-02T04:49:02;99187.47;;;20.72;75.32
54666;BME280;40566;50.006;36.180;2022-08-02T04:54:03;99163.31;;;20.67;75.42
54666;BME280;40566;50.006;36.180;2022-08-02T04:59:05;99170.38;;;20.67;75.60
54666;BME280;40566;50.006;36.180;2022-08-02T05:04:06;99153.19;;;20.74;75.39
54666;BME280;40566;50.006;36.180;2022-08-02T05:09:07;99131.41;;;20.83;75.36
54666;BME280;40566;50.006;36.180;2022-08-02T05:14:08;99118.22;;;20.94;75.21
54666;BME280;40566;50.006;36.180;2022-08-02T05:19:09;99119.84;;;21.07;75.09
54666;BME280;40566;50.006;36.180;2022-08-02T05:24:10;99103.00;;;21.09;75.19
54666;BME280;40566;50.006;36.180;2022-08-02T05:29:10;99120.47;;;20.99;75.49
54666;BME280;40566;50.006;36.180;2022-08-02T05:34:11;99113.94;;;20.93;75.83
54666;BME280;40566;50.006;36.180;2022-08-02T05:39:11;99052.41;;;20.85;76.05
54666;BME280;40566;50.006;36.180;2022-08-02T05:44:12;98939.69;;;20.70;76.43
54666;BME280;40566;50.006;36.180;2022-08-02T05:49:13;98877.13;;;20.64;76.55
54666;BME280;40566;50.006;36.180;2022-08-02T05:55:04;98868.34;;;20.54;76.66
54666;BME280;40566;50.006;36.180;2022-08-02T06:00:02;98884.47;;;20.49;76.74
54666;BME280;40566;50.006;36.180;2022-08-02T06:05:13;98885.63;;;20.56;76.48
54666;BME280;40566;50.006;36.180;2022-08-02T06:10:16;98928.00;;;20.63;76.15
54666;BME280;40566;50.006;36.180;2022-08-02T06:15:19;99032.78;;;20.68;76.00
54666;BME280;40566;50.006;36.180;2022-08-02T06:20:21;99109.69;;;20.58;76.28
54666;BME280;40566;50.006;36.180;2022-08-02T06:25:22;99083.06;;;20.52;76.51
54666;BME280;40566;50.006;36.180;2022-08-02T06:30:23;99106.72;;;20.63;76.27
54666;BME280;40566;50.006;36.180;2022-08-02T06:35:30;99095.63;;;20.48;76.75
54666;BME280;40566;50.006;36.180;2022-08-02T06:40:46;99118.56;;;20.46;76.93
54666;BME280;40566;50.006;36.180;2022-08-02T06:45:47;99121.19;;;20.46;76.88
54666;BME280;40566;50.006;36.180;2022-08-02T06:50:48;99117.94;;;20.54;76.77
54666;BME280;40566;50.006;36.180;2022-08-02T06:55:48;99124.13;;;20.53;76.96
54666;BME280;40566;50.006;36.180;2022-08-02T07:00:50;99122.75;;;20.60;76.79
54666;BME280;40566;50.006;36.180;2022-08-02T07:05:53;99116.84;;;20.56;76.96
54666;BME280;40566;50.006;36.180;2022-08-02T07:10:54;99112.28;;;20.81;76.22
54666;BME280;40566;50.006;36.180;2022-08-02T07:15:57;99104.53;;;21.12;75.57
54666;BME280;40566;50.006;36.180;2022-08-02T07:20:58;99107.66;;;21.38;74.96
54666;BME280;40566;50.006;36.180;2022-08-02T07:25:58;99120.34;;;21.65;74.26
54666;BME280;40566;50.006;36.180;2022-08-02T07:30:59;99113.28;;;21.87;73.52
54666;BME280;40566;50.006;36.180;2022-08-02T07:36:00;99125.03;;;22.13;72.64
54666;BME280;40566;50.006;36.180;2022-08-02T07:41:02;99144.25;;;22.25;72.74
54666;BME280;40566;50.006;36.180;2022-08-02T07:46:03;99142.09;;;22.40;72.24
54666;BME280;40566;50.006;36.180;2022-08-02T07:51:03;99133.56;;;22.57;71.59
54666;BME280;40566;50.006;36.180;2022-08-02T07:56:04;99129.00;;;22.60;71.22
54666;BME280;40566;50.006;36.180;2022-08-02T08:01:05;99114.13;;;22.58;71.07
54666;BME280;40566;50.006;36.180;2022-08-02T08:06:05;99118.88;;;22.84;70.71
54666;BME280;40566;50.006;36.180;2022-08-02T08:11:06;99123.63;;;23.00;69.82
54666;BME280;40566;50.006;36.180;2022-08-02T08:16:07;99129.38;;;23.05;69.57
54666;BME280;40566;50.006;36.180;2022-08-02T08:21:07;99133.94;;;23.03;69.84
54666;BME280;40566;50.006;36.180;2022-08-02T08:26:09;99161.03;;;23.15;69.51
54666;BME280;40566;50.006;36.180;2022-08-02T08:31:09;99163.81;;;23.13;69.20
54666;BME280;40566;50.006;36.180;2022-08-02T08:36:11;99216.84;;;23.20;68.81
54666;BME280;40566;50.006;36.180;2022-08-02T08:41:14;99214.66;;;23.25;68.71
54666;BME280;40566;50.006;36.180;2022-08-02T08:46:32;99226.88;;;23.36;68.03
54666;BME280;40566;50.006;36.180;2022-08-02T08:51:40;99212.31;;;23.61;67.38
54666;BME280;40566;50.006;36.180;2022-08-02T08:56:41;99217.31;;;23.74;66.79
54666;BME280;40566;50.006;36.180;2022-08-02T09:01:45;99221.47;;;23.76;66.66
54666;BME280;40566;50.006;36.180;2022-08-02T09:06:46;99205.63;;;23.76;66.32
54666;BME280;40566;50.006;36.180;2022-08-02T09:11:47;99223.72;;;23.91;66.16
54666;BME280;40566;50.006;36.180;2022-08-02T09:16:47;99238.44;;;23.74;66.79
54666;BME280;40566;50.006;36.180;2022-08-02T09:21:50;99230.53;;;23.45;67.59
54666;BME280;40566;50.006;36.180;2022-08-02T09:26:51;99230.22;;;23.28;67.86
54666;BME280;40566;50.006;36.180;2022-08-02T09:32:01;99234.47;;;23.10;67.99
54666;BME280;40566;50.006;36.180;2022-08-02T09:37:02;99236.09;;;23.01;68.15
54666;BME280;40566;50.006;36.180;2022-08-02T09:42:09;99249.13;;;22.93;68.21
54666;BME280;40566;50.006;36.180;2022-08-02T09:47:13;99261.59;;;22.81;68.49
54666;BME280;40566;50.006;36.180;2022-08-02T09:52:14;99259.91;;;22.80;68.10
54666;BME280;40566;50.006;36.180;2022-08-02T09:57:24;99245.06;;;22.79;68.17
54666;BME280;40566;50.006;36.180;2022-08-02T10:02:25;99250.75;;;22.84;68.04
54666;BME280;40566;50.006;36.180;2022-08-02T10:07:26;99250.50;;;22.87;67.77
54666;BME280;40566;50.006;36.180;2022-08-02T10:12:27;99261.78;;;22.99;67.72
54666;BME280;40566;50.006;36.180;2022-08-02T10:17:29;99263.38;;;23.11;67.09
54666;BME280;40566;50.006;36.180;2022-08-02T10:22:32;99256.44;;;23.20;67.16
54666;BME280;40566;50.006;36.180;2022-08-02T10:27:35;99256.19;;;23.33;66.99
54666;BME280;40566;50.006;36.180;2022-08-02T10:32:38;99253.44;;;23.44;66.35
54666;BME280;40566;50.006;36.180;2022-08-02T10:37:43;99259.28;;;23.67;66.11
54666;BME280;40566;50.006;36.180;2022-08-02T10:42:47;99260.13;;;23.68;66.36
54666;BME280;40566;50.006;36.180;2022-08-02T10:48:11;99271.50;;;23.49;66.83
54666;BME280;40566;50.006;36.180;2022-08-02T10:53:30;99279.53;;;23.38;67.16
54666;BME280;40566;50.006;36.180;2022-08-02T10:58:32;99290.38;;;23.25;67.40
54666;BME280;40566;50.006;36.180;2022-08-02T11:03:35;99282.41;;;23.15;67.54
54666;BME280;40566;50.006;36.180;2022-08-02T11:08:36;99273.22;;;23.09;67.83
54666;BME280;40566;50.006;36.180;2022-08-02T11:14:05;99259.06;;;23.20;67.42
54666;BME280;40566;50.006;36.180;2022-08-02T11:19:07;99269.66;;;23.30;67.61
54666;BME280;40566;50.006;36.180;2022-08-02T11:24:28;99266.75;;;23.23;67.82
54666;BME280;40566;50.006;36.180;2022-08-02T11:29:32;99273.97;;;23.31;67.83
54666;BME280;40566;50.006;36.180;2022-08-02T11:34:33;99262.59;;;23.30;67.34
54666;BME280;40566;50.006;36.180;2022-08-02T11:39:34;99268.69;;;23.31;67.38
54666;BME280;40566;50.006;36.180;2022-08-02T11:44:41;99257.88;;;23.44;66.81
54666;BME280;40566;50.006;36.180;2022-08-02T11:49:41;99282.22;;;23.76;65.84
54666;BME280;40566;50.006;36.180;2022-08-02T11:54:43;99270.16;;;24.03;65.33
54666;BME280;40566;50.006;36.180;2022-08-02T11:59:47;99258.16;;;24.28;64.66
54666;BME280;40566;50.006;36.180;2022-08-02T12:04:56;99237.81;;;24.29;64.22
54666;BME280;40566;50.006;36.180;2022-08-02T12:10:03;99231.84;;;24.27;64.31
54666;BME280;40566;50.006;36.180;2022-08-02T12:15:04;99226.97;;;24.32;64.00
54666;BME280;40566;50.006;36.180;2022-08-02T12:20:05;99218.13;;;24.23;64.29
54666;BME280;40566;50.006;36.180;2022-08-02T12:25:16;99196.44;;;24.10;64.20
54666;BME280;40566;50.006;36.180;2022-08-02T12:30:18;99196.47;;;23.90;64.70
54666;BME280;40566;50.006;36.180;2022-08-02T12:35:19;99200.81;;;23.82;65.21
54666;BME280;40566;50.006;36.180;2022-08-02T12:40:30;99184.78;;;23.73;65.20
54666;BME280;40566;50.006;36.180;2022-08-02T12:45:44;99184.50;;;23.67;65.09
54666;BME280;40566;50.006;36.180;2022-08-02T12:50:44;99199.25;;;23.69;64.97
54666;BME280;40566;50.006;36.180;2022-08-02T12:55:56;99176.81;;;24.12;63.77
54666;BME280;40566;50.006;36.180;2022-08-02T13:00:59;99167.56;;;24.73;61.73
54666;BME280;40566;50.006;36.180;2022-08-02T13:06:00;99165.59;;;24.76;61.78
54666;BME280;40566;50.006;36.180;2022-08-02T13:11:01;99164.19;;;24.53;62.35
54666;BME280;40566;50.006;36.180;2022-08-02T13:16:02;99162.22;;;24.56;62.54
54666;BME280;40566;50.006;36.180;2022-08-02T13:21:04;99157.88;;;24.54;62.45
54666;BME280;40566;50.006;36.180;2022-08-02T13:26:06;99147.63;;;24.51;62.60
54666;BME280;40566;50.006;36.180;2022-08-02T13:31:06;99140.28;;;24.35;62.76
54666;BME280;40566;50.006;36.180;2022-08-02T13:36:07;99139.34;;;24.27;63.07
54666;BME280;40566;50.006;36.180;2022-08-02T13:41:08;99153.72;;;24.14;63.11
54666;BME280;40566;50.006;36.180;2022-08-02T13:46:08;99146.69;;;24.05;62.89
54666;BME280;40566;50.006;36.180;2022-08-02T13:51:09;99151.78;;;24.07;62.89
54666;BME280;40566;50.006;36.180;2022-08-02T13:56:12;99160.28;;;24.01;62.74
54666;BME280;40566;50.006;36.180;2022-08-02T14:01:12;99156.13;;;23.98;62.68
54666;BME280;40566;50.006;36.180;2022-08-02T14:06:15;99166.00;;;24.06;62.61
54666;BME280;40566;50.006;36.180;2022-08-02T14:11:15;99173.91;;;24.06;62.65
54666;BME280;40566;50.006;36.180;2022-08-02T14:16:16;99174.75;;;24.06;62.34
54666;BME280;40566;50.006;36.180;2022-08-02T14:21:16;99174.47;;;24.09;62.41
54666;BME280;40566;50.006;36.180;2022-08-02T14:26:17;99178.50;;;24.13;62.38
54666;BME280;40566;50.006;36.180;2022-08-02T14:31:18;99191.00;;;24.11;62.51
54666;BME280;40566;50.006;36.180;2022-08-02T14:36:18;99184.16;;;24.19;62.27
54666;BME280;40566;50.006;36.180;2022-08-02T14:41:19;99190.53;;;24.35;62.10
54666;BME280;40566;50.006;36.180;2022-08-02T14:46:19;99199.94;;;24.48;61.86
54666;BME280;40566;50.006;36.180;2022-08-02T14:51:20;99205.34;;;24.46;61.84
54666;BME280;40566;50.006;36.180;2022-08-02T14:56:21;99216.28;;;24.33;62.46
54666;BME280;40566;50.006;36.180;2022-08-02T15:01:22;99215.06;;;24.18;62.97
54666;BME280;40566;50.006;36.180;2022-08-02T15:06:23;99234.56;;;24.07;63.27
54666;BME280;40566;50.006;36.180;2022-08-02T15:11:23;99219.69;;;23.97;63.48
54666;BME280;40566;50.006;36.180;2022-08-02T15:16:25;99216.09;;;23.88;63.52
54666;BME280;40566;50.006;36.180;2022-08-02T15:21:25;99211.66;;;23.79;63.86
54666;BME280;40566;50.006;36.180;2022-08-02T15:26:26;99210.09;;;23.76;63.93
54666;BME280;40566;50.006;36.180;2022-08-02T15:31:27;99221.22;;;23.70;64.25
54666;BME280;40566;50.006;36.180;2022-08-02T15:36:28;99217.88;;;23.68;64.32
54666;BME280;40566;50.006;36.180;2022-08-02T15:41:28;99207.47;;;23.66;64.41
54666;BME280;40566;50.006;36.180;2022-08-02T15:46:35;99207.47;;;23.66;64.45
54666;BME280;40566;50.006;36.180;2022-08-02T15:51:35;99214.81;;;23.63;64.61
54666;BME280;40566;50.006;36.180;2022-08-02T15:56:36;99213.13;;;23.62;64.70
54666;BME280;40566;50.006;36.180;2022-08-02T16:01:37;99210.94;;;23.57;65.13
54666;BME280;40566;50.006;36.180;2022-08-02T16:06:38;99208.41;;;23.55;65.41
54666;BME280;40566;50.006;36.180;2022-08-02T16:11:39;99202.59;;;23.52;65.43
54666;BME280;40566;50.006;36.180;2022-08-02T16:16:39;99209.97;;;23.48;65.46
54666;BME280;40566;50.006;36.180;2022-08-02T16:21:40;99219.25;;;23.43;65.80
54666;BME280;40566;50.006;36.180;2022-08-02T16:26:41;99211.91;;;23.36;65.86
54666;BME280;40566;50.006;36.180;2022-08-02T16:31:41;99211.47;;;23.31;65.90
54666;BME280;40566;50.006;36.180;2022-08-02T16:36:42;99205.22;;;23.23;66.26
54666;BME280;40566;50.006;36.180;2022-08-02T16:41:43;99205.47;;;23.10;66.48
54666;BME280;40566;50.006;36.180;2022-08-02T16:46:44;99208.03;;;23.00;66.99
54666;BME280;40566;50.006;36.180;2022-08-02T16:51:45;99203.03;;;22.87;67.04
54666;BME280;40566;50.006;36.180;2022-08-02T16:56:52;99203.94;;;22.76;67.50
54666;BME280;40566;50.006;36.180;2022-08-02T17:01:53;99215.31;;;22.67;67.69
54666;BME280;40566;50.006;36.180;2022-08-02T17:06:54;99222.22;;;22.58;67.88
54666;BME280;40566;50.006;36.180;2022-08-02T17:11:54;99217.06;;;22.47;67.99
54666;BME280;40566;50.006;36.180;2022-08-02T17:16:55;99233.50;;;22.40;68.30
54666;BME280;40566;50.006;36.180;2022-08-02T17:21:56;99237.75;;;22.31;68.53
54666;BME280;40566;50.006;36.180;2022-08-02T17:26:57;99246.41;;;22.22;68.69
54666;BME280;40566;50.006;36.180;2022-08-02T17:31:57;99247.25;;;22.22;68.71
54666;BME280;40566;50.006;36.180;2022-08-02T17:36:58;99243.91;;;22.20;68.86
54666;BME280;40566;50.006;36.180;2022-08-02T17:41:58;99236.25;;;22.17;68.71
54666;BME280;40566;50.006;36.180;2022-08-02T17:46:59;99241.09;;;22.12;69.02
54666;BME280;40566;50.006;36.180;2022-08-02T17:52:00;99255.09;;;22.12;69.18
54666;BME280;40566;50.006;36.180;2022-08-02T17:57:01;99259.38;;;22.13;69.21
54666;BME280;40566;50.006;36.180;2022-08-02T18:02:02;99264.53;;;22.15;68.98
54666;BME280;40566;50.006;36.180;2022-08-02T18:07:03;99296.25;;;22.13;69.82
54666;BME280;40566;50.006;36.180;2022-08-02T18:12:04;99311.34;;;22.11;70.04
54666;BME280;40566;50.006;36.180;2022-08-02T18:17:05;99328.34;;;22.18;69.96
54666;BME280;40566;50.006;36.180;2022-08-02T18:22:06;99320.19;;;22.22;69.74
54666;BME280;40566;50.006;36.180;2022-08-02T18:27:07;99341.38;;;22.20;70.04
54666;BME280;40566;50.006;36.180;2022-08-02T18:32:08;99356.50;;;22.18;70.33
54666;BME280;40566;50.006;36.180;2022-08-02T18:37:10;99352.59;;;22.01;71.10
54666;BME280;40566;50.006;36.180;2022-08-02T18:42:12;99347.63;;;21.87;71.59
54666;BME280;40566;50.006;36.180;2022-08-02T18:47:12;99328.28;;;21.76;71.92
54666;BME280;40566;50.006;36.180;2022-08-02T18:52:13;99328.63;;;21.72;72.09
54666;BME280;40566;50.006;36.180;2022-08-02T18:57:16;99327.91;;;21.70;72.17
54666;BME280;40566;50.006;36.180;2022-08-02T19:02:16;99324.84;;;21.65;72.39
54666;BME280;40566;50.006;36.180;2022-08-02T19:07:17;99313.38;;;21.54;72.85
54666;BME280;40566;50.006;36.180;2022-08-02T19:12:17;99298.78;;;21.50;72.90
54666;BME280;40566;50.006;36.180;2022-08-02T19:17:18;99289.09;;;21.39;73.13
54666;BME280;40566;50.006;36.180;2022-08-02T19:22:19;99286.84;;;21.35;73.08
54666;BME280;40566;50.006;36.180;2022-08-02T19:27:19;99286.47;;;21.28;73.05
54666;BME280;40566;50.006;36.180;2022-08-02T19:32:20;99285.53;;;21.18;73.16
54666;BME280;40566;50.006;36.180;2022-08-02T19:37:21;99267.72;;;21.10;73.34
54666;BME280;40566;50.006;36.180;2022-08-02T19:42:21;99267.13;;;21.07;73.63
54666;BME280;40566;50.006;36.180;2022-08-02T19:47:22;99260.69;;;20.99;73.47
54666;BME280;40566;50.006;36.180;2022-08-02T19:52:23;99267.38;;;20.92;73.91
54666;BME280;40566;50.006;36.180;2022-08-02T19:57:23;99259.75;;;20.89;74.18
54666;BME280;40566;50.006;36.180;2022-08-02T20:02:24;99249.59;;;20.96;73.84
54666;BME280;40566;50.006;36.180;2022-08-02T20:07:25;99253.03;;;20.85;74.17
54666;BME280;40566;50.006;36.180;2022-08-02T20:12:27;99262.38;;;20.89;74.39
54666;BME280;40566;50.006;36.180;2022-08-02T20:17:27;99257.47;;;20.85;74.53
54666;BME280;40566;50.006;36.180;2022-08-02T20:22:31;99254.84;;;20.85;74.78
54666;BME280;40566;50.006;36.180;2022-08-02T20:27:32;99251.63;;;20.81;74.96
54666;BME280;40566;50.006;36.180;2022-08-02T20:32:32;99241.34;;;20.78;75.06
54666;BME280;40566;50.006;36.180;2022-08-02T20:37:33;99242.44;;;20.75;75.11
54666;BME280;40566;50.006;36.180;2022-08-02T20:42:33;99258.53;;;20.71;75.46
54666;BME280;40566;50.006;36.180;2022-08-02T20:47:34;99248.03;;;20.71;75.37
54666;BME280;40566;50.006;36.180;2022-08-02T20:52:35;99248.28;;;20.68;75.33
54666;BME280;40566;50.006;36.180;2022-08-02T20:57:36;99246.50;;;20.68;75.36
54666;BME280;40566;50.006;36.180;2022-08-02T21:02:38;99239.91;;;20.63;75.51
54666;BME280;40566;50.006;36.180;2022-08-02T21:07:39;99248.47;;;20.53;76.01
54666;BME280;40566;50.006;36.180;2022-08-02T21:12:39;99248.22;;;20.45;76.27
54666;BME280;40566;50.006;36.180;2022-08-02T21:17:41;99239.88;;;20.51;76.22
54666;BME280;40566;50.006;36.180;2022-08-02T21:22:42;99242.16;;;20.56;76.03
54666;BME280;40566;50.006;36.180;2022-08-02T21:27:43;99243.00;;;20.56;75.96
54666;BME280;40566;50.006;36.180;2022-08-02T21:32:45;99249.06;;;20.57;76.11
54666;BME280;40566;50.006;36.180;2022-08-02T21:37:50;99237.97;;;20.53;76.05
54666;BME280;40566;50.006;36.180;2022-08-02T21:42:51;99238.19;;;20.39;76.29
54666;BME280;40566;50.006;36.180;2022-08-02T21:47:51;99216.94;;;20.31;76.47
54666;BME280;40566;50.006;36.180;2022-08-02T21:52:52;99217.63;;;20.21;76.41
54666;BME280;40566;50.006;36.180;2022-08-02T21:57:52;99216.59;;;20.24;76.19
54666;BME280;40566;50.006;36.180;2022-08-02T22:02:53;99220.97;;;20.24;76.31
54666;BME280;40566;50.006;36.180;2022-08-02T22:07:54;99216.69;;;20.23;76.29
54666;BME280;40566;50.006;36.180;2022-08-02T22:12:54;99223.47;;;20.14;76.47
54666;BME280;40566;50.006;36.180;2022-08-02T22:17:55;99220.59;;;20.06;76.63
54666;BME280;40566;50.006;36.180;2022-08-02T22:22:55;99221.16;;;19.98;76.65
54666;BME280;40566;50.006;36.180;2022-08-02T22:27:56;99220.44;;;19.96;76.72
54666;BME280;40566;50.006;36.180;2022-08-02T22:32:56;99226.03;;;19.91;76.96
54666;BME280;40566;50.006;36.180;2022-08-02T22:38:16;99216.47;;;19.90;76.59
54666;BME280;40566;50.006;36.180;2022-08-02T22:43:18;99208.59;;;19.90;76.86
54666;BME280;40566;50.006;36.180;2022-08-02T22:48:19;99222.69;;;19.89;76.73
54666;BME280;40566;50.006;36.180;2022-08-02T22:53:20;99233.19;;;19.89;76.94
54666;BME280;40566;50.006;36.180;2022-08-02T22:58:20;99240.41;;;19.98;76.50
54666;BME280;40566;50.006;36.180;2022-08-02T23:03:21;99241.56;;;19.94;76.63
54666;BME280;40566;50.006;36.180;2022-08-02T23:08:22;99240.72;;;19.94;76.58
54666;BME280;40566;50.006;36.180;2022-08-02T23:13:23;99232.38;;;19.89;76.68
54666;BME280;40566;50.006;36.180;2022-08-02T23:18:24;99241.06;;;19.89;77.01
54666;BME280;40566;50.006;36.180;2022-08-02T23:23:43;99243.34;;;19.94;77.08
54666;BME280;40566;50.006;36.180;2022-08-02T23:28:43;99248.84;;;20.02;76.85
54666;BME280;40566;50.006;36.180;2022-08-02T23:33:44;99259.34;;;20.02;77.00
54666;BME280;40566;50.006;36.180;2022-08-02T23:38:44;99260.81;;;20.06;76.89
54666;BME280;40566;50.006;36.180;2022-08-02T23:43:45;99258.69;;;20.11;76.78
54666;BME280;40566;50.006;36.180;2022-08-02T23:48:46;99251.97;;;20.07;77.15
54666;BME280;40566;50.006;36.180;2022-08-02T23:53:47;99252.34;;;20.03;77.33
54666;BME280;40566;50.006;36.180;2022-08-02T23:58:47;99257.91;;;19.98;77.20
